Time;durP1;ratioP1;P1;durP2;ratioP2;P2;SDS_P1;SDS_P2;PMS_P1;PMS_P2;Temp;Humidity;BMP_temperature;BMP_pressure;BME280_temperature;BME280_humidity;BME280_pressure;Samples;Min_cycle;Max_cycle;Signal;HPM_P1;HPM_P2
2021/07/02 00:02:18;;;;;;;2.90;2.70;;;;;;;;;;6246922;23;20420;-60
2021/07/02 00:04:44;;;;;;;3.78;2.92;;;;;;;;;;6247002;23;20004;-59
2021/07/02 00:07:09;;;;;;;3.22;2.92;;;;;;;;;;6247173;23;20000;-60
2021/07/02 00:09:35;;;;;;;5.70;3.35;;;;;;;;;;6247135;23;20083;-59
2021/07/02 00:12:00;;;;;;;3.13;2.78;;;;;;;;;;6246529;23;20008;-59
2021/07/02 00:14:26;;;;;;;3.03;2.80;;;;;;;;;;6247310;23;20004;-59
2021/07/02 00:16:51;;;;;;;4.13;2.67;;;;;;;;;;6220223;23;20000;-60
2021/07/02 00:19:17;;;;;;;3.35;2.67;;;;;;;;;;6246862;23;20008;-59
2021/07/02 00:21:42;;;;;;;2.78;2.58;;;;;;;;;;6247034;23;19996;-59
2021/07/02 00:24:08;;;;;;;3.00;2.65;;;;;;;;;;6247198;23;20006;-59
2021/07/02 00:26:35;;;;;;;2.97;2.78;;;;;;;;;;6246904;23;20000;-59
2021/07/02 00:29:01;;;;;;;3.42;2.58;;;;;;;;;;6246595;23;20482;-60
2021/07/02 00:31:26;;;;;;;3.13;2.80;;;;;;;;;;6246943;23;20071;-59
2021/07/02 00:33:52;;;;;;;2.88;2.67;;;;;;;;;;6246856;23;20087;-59
2021/07/02 00:36:17;;;;;;;2.42;2.22;;;;;;;;;;6247080;23;20000;-59
2021/07/02 00:38:43;;;;;;;3.40;2.58;;;;;;;;;;6246907;23;20019;-59
2021/07/02 00:41:08;;;;;;;2.92;2.72;;;;;;;;;;6219688;23;20004;-59
2021/07/02 00:43:36;;;;;;;3.15;2.95;;;;;;;;;;6246740;23;20043;-59
2021/07/02 00:46:02;;;;;;;3.78;2.78;;;;;;;;;;6246783;23;20024;-59
2021/07/02 00:48:27;;;;;;;2.88;2.67;;;;;;;;;;6220098;23;20004;-59
2021/07/02 00:50:53;;;;;;;3.22;2.97;;;;;;;;;;6246702;23;20420;-60
2021/07/02 00:53:22;;;;;;;3.03;2.63;;;;;;;;;;6246933;23;20079;-60
2021/07/02 00:55:48;;;;;;;2.50;2.40;;;;;;;;;;6219710;23;20428;-60
2021/07/02 00:58:14;;;;;;;2.85;2.65;;;;;;;;;;6219785;23;20074;-60
2021/07/02 01:00:40;;;;;;;4.00;2.95;;;;;;;;;;6246571;23;20357;-59
2021/07/02 01:03:06;;;;;;;2.78;2.58;;;;;;;;;;6219607;23;20336;-60
2021/07/02 01:05:32;;;;;;;4.25;2.80;;;;;;;;;;6220119;23;20015;-60
2021/07/02 01:07:58;;;;;;;2.95;2.75;;;;;;;;;;6246677;23;20027;-60
2021/07/02 01:10:24;;;;;;;3.50;2.90;;;;;;;;;;6246468;23;20070;-60
2021/07/02 01:12:51;;;;;;;3.28;2.65;;;;;;;;;;6218956;23;20022;-60
2021/07/02 01:15:22;;;;;;;2.88;2.67;;;;;;;;;;6246264;23;20336;-60
2021/07/02 01:17:51;;;;;;;2.63;2.42;;;;;;;;;;6219935;23;20012;-60
2021/07/02 01:20:18;;;;;;;2.58;2.40;;;;;;;;;;6194468;23;20008;-60
2021/07/02 01:22:46;;;;;;;3.15;2.85;;;;;;;;;;6219379;23;20015;-60
2021/07/02 01:25:12;;;;;;;3.00;2.80;;;;;;;;;;6218806;23;20420;-60
2021/07/02 01:27:39;;;;;;;3.17;2.97;;;;;;;;;;6219622;23;20000;-60
2021/07/02 01:30:08;;;;;;;2.95;2.67;;;;;;;;;;6219385;23;20360;-59
2021/07/02 01:32:35;;;;;;;2.83;2.58;;;;;;;;;;6219287;23;20012;-60
2021/07/02 01:35:01;;;;;;;3.22;3.00;;;;;;;;;;6219495;23;20023;-60
2021/07/02 01:37:27;;;;;;;3.70;2.90;;;;;;;;;;6219657;23;20428;-60
2021/07/02 01:39:54;;;;;;;3.17;2.97;;;;;;;;;;6219474;23;20031;-60
2021/07/02 01:42:21;;;;;;;4.72;2.60;;;;;;;;;;6246108;23;20011;-60
2021/07/02 01:44:47;;;;;;;2.83;2.63;;;;;;;;;;6218960;23;20008;-60
2021/07/02 01:47:15;;;;;;;3.03;2.83;;;;;;;;;;6219910;23;20008;-60
2021/07/02 01:49:40;;;;;;;3.13;2.92;;;;;;;;;;6219328;23;20007;-60
2021/07/02 01:52:06;;;;;;;3.47;2.88;;;;;;;;;;6219169;23;20039;-60
2021/07/02 01:54:32;;;;;;;2.80;2.60;;;;;;;;;;6219124;23;20428;-60
2021/07/02 01:57:00;;;;;;;3.75;2.53;;;;;;;;;;6219194;23;20313;-60
2021/07/02 01:59:31;;;;;;;2.95;2.75;;;;;;;;;;6219552;23;20079;-59
2021/07/02 02:02:00;;;;;;;3.85;2.78;;;;;;;;;;6219469;23;20505;-59
2021/07/02 02:04:25;;;;;;;3.30;2.70;;;;;;;;;;6246171;23;19993;-60
2021/07/02 02:06:54;;;;;;;2.97;2.78;;;;;;;;;;6219715;23;20001;-60
2021/07/02 02:09:19;;;;;;;3.45;2.58;;;;;;;;;;6219387;23;20344;-60
2021/07/02 02:11:48;;;;;;;2.90;2.70;;;;;;;;;;6219227;23;20057;-60
2021/07/02 02:14:19;;;;;;;2.85;2.50;;;;;;;;;;6219694;23;20024;-59
2021/07/02 02:16:48;;;;;;;2.90;2.70;;;;;;;;;;6219704;23;20008;-60
2021/07/02 02:19:18;;;;;;;2.90;2.65;;;;;;;;;;6246228;23;20491;-59
2021/07/02 02:21:43;;;;;;;2.75;2.55;;;;;;;;;;6219466;23;20036;-60
2021/07/02 02:24:09;;;;;;;3.25;2.95;;;;;;;;;;6219826;23;20084;-59
2021/07/02 02:26:36;;;;;;;2.83;2.58;;;;;;;;;;6219302;23;20004;-59
2021/07/02 02:29:02;;;;;;;3.28;2.80;;;;;;;;;;6219163;23;20007;-59
2021/07/02 02:31:28;;;;;;;2.70;2.60;;;;;;;;;;6219390;23;20086;-60
2021/07/02 02:34:00;;;;;;;3.03;2.83;;;;;;;;;;6219383;23;20000;-59
2021/07/02 02:36:27;;;;;;;2.88;2.78;;;;;;;;;;6219277;23;20413;-60
2021/07/02 02:38:53;;;;;;;3.40;2.88;;;;;;;;;;6219251;23;20332;-60
2021/07/02 02:41:19;;;;;;;3.65;2.97;;;;;;;;;;6219586;23;20431;-60
2021/07/02 02:43:45;;;;;;;3.40;3.20;;;;;;;;;;6219496;23;20079;-60
2021/07/02 02:46:11;;;;;;;4.07;2.85;;;;;;;;;;6219336;23;20082;-60
2021/07/02 02:48:39;;;;;;;3.47;3.17;;;;;;;;;;6194455;23;19996;-60
2021/07/02 02:51:07;;;;;;;7.25;2.92;;;;;;;;;;6245918;23;20011;-60
2021/07/02 02:53:33;;;;;;;3.13;2.92;;;;;;;;;;6245914;23;20028;-59
2021/07/02 02:55:59;;;;;;;3.20;3.00;;;;;;;;;;6247817;23;20369;-60
2021/07/02 02:58:25;;;;;;;3.33;2.92;;;;;;;;;;6248117;23;20027;-60
2021/07/02 03:00:51;;;;;;;3.08;2.85;;;;;;;;;;6221359;23;20012;-59
2021/07/02 03:03:16;;;;;;;3.60;3.30;;;;;;;;;;6247494;23;20003;-59
2021/07/02 03:05:42;;;;;;;4.05;3.20;;;;;;;;;;6247792;23;20004;-59
2021/07/02 03:08:08;;;;;;;3.78;3.38;;;;;;;;;;6220948;23;19992;-59
2021/07/02 03:10:40;;;;;;;4.55;3.20;;;;;;;;;;6247557;23;20087;-60
2021/07/02 03:13:07;;;;;;;3.28;3.10;;;;;;;;;;6247419;23;20044;-60
2021/07/02 03:15:33;;;;;;;3.47;3.28;;;;;;;;;;6195284;23;20039;-60
2021/07/02 03:18:00;;;;;;;4.63;3.17;;;;;;;;;;6221269;23;20012;-60
2021/07/02 03:20:27;;;;;;;3.78;3.47;;;;;;;;;;6220900;23;20416;-60
2021/07/02 03:22:52;;;;;;;4.32;3.85;;;;;;;;;;6247494;23;20011;-60
2021/07/02 03:25:18;;;;;;;3.45;3.10;;;;;;;;;;6221020;23;20000;-60
2021/07/02 03:27:44;;;;;;;2.97;2.80;;;;;;;;;;6220817;23;20027;-60
2021/07/02 03:30:11;;;;;;;3.25;2.95;;;;;;;;;;6220554;23;19996;-60
2021/07/02 03:32:38;;;;;;;3.67;3.47;;;;;;;;;;6220694;23;20008;-59
2021/07/02 03:35:07;;;;;;;3.45;3.15;;;;;;;;;;6247453;23;20011;-60
2021/07/02 03:37:33;;;;;;;8.38;3.83;;;;;;;;;;6247288;23;20008;-60
2021/07/02 03:40:04;;;;;;;7.45;4.10;;;;;;;;;;6220823;23;20000;-60
2021/07/02 03:42:32;;;;;;;3.72;3.42;;;;;;;;;;6220774;23;20028;-60
2021/07/02 03:44:57;;;;;;;3.97;3.67;;;;;;;;;;6221196;23;19992;-60
2021/07/02 03:47:24;;;;;;;3.55;3.35;;;;;;;;;;6220800;23;20000;-60
2021/07/02 03:49:50;;;;;;;3.97;3.67;;;;;;;;;;6220982;23;20004;-60
2021/07/02 03:52:17;;;;;;;3.65;3.45;;;;;;;;;;6220517;23;20012;-60
2021/07/02 03:54:42;;;;;;;3.97;3.67;;;;;;;;;;6247489;23;19996;-60
2021/07/02 03:57:12;;;;;;;3.55;3.33;;;;;;;;;;6247408;23;20432;-60
2021/07/02 03:59:46;;;;;;;3.80;3.50;;;;;;;;;;6247177;23;19996;-59
2021/07/02 04:02:12;;;;;;;3.80;3.50;;;;;;;;;;6247550;23;20290;-59
2021/07/02 04:04:38;;;;;;;4.47;3.45;;;;;;;;;;6247415;23;20375;-59
2021/07/02 04:07:06;;;;;;;3.95;3.67;;;;;;;;;;6246827;23;20031;-60
2021/07/02 04:09:32;;;;;;;4.15;3.85;;;;;;;;;;6247160;23;19997;-60
2021/07/02 04:11:59;;;;;;;4.15;3.83;;;;;;;;;;6246894;23;20019;-60
2021/07/02 04:14:24;;;;;;;6.75;4.00;;;;;;;;;;6247339;23;20134;-60
2021/07/02 04:16:52;;;;;;;3.83;3.53;;;;;;;;;;6247590;23;20035;-59
2021/07/02 04:19:18;;;;;;;5.53;3.72;;;;;;;;;;6247341;23;20084;-60
2021/07/02 04:21:44;;;;;;;3.88;3.67;;;;;;;;;;6247237;23;20004;-60
2021/07/02 04:24:11;;;;;;;3.88;3.67;;;;;;;;;;6246931;23;20312;-60
2021/07/02 04:26:36;;;;;;;4.25;3.95;;;;;;;;;;6247269;23;20079;-60
2021/07/02 04:29:02;;;;;;;4.38;4.03;;;;;;;;;;6247457;23;20427;-60
2021/07/02 04:31:30;;;;;;;4.18;3.65;;;;;;;;;;6246952;23;20027;-60
2021/07/02 04:33:57;;;;;;;4.90;3.90;;;;;;;;;;6247091;23;20483;-60
2021/07/02 04:36:25;;;;;;;4.15;3.85;;;;;;;;;;6247926;23;20038;-60
2021/07/02 04:38:53;;;;;;;4.30;3.83;;;;;;;;;;6247452;23;19996;-60
2021/07/02 04:41:20;;;;;;;4.10;3.90;;;;;;;;;;6246821;23;20455;-60
2021/07/02 04:43:46;;;;;;;4.70;3.90;;;;;;;;;;6247361;23;20027;-60
2021/07/02 04:46:11;;;;;;;5.60;4.07;;;;;;;;;;6247090;23;20344;-60
2021/07/02 04:48:37;;;;;;;4.38;4.03;;;;;;;;;;6246718;23;20133;-60
2021/07/02 04:51:02;;;;;;;4.47;4.00;;;;;;;;;;6247127;23;20004;-60
2021/07/02 04:53:28;;;;;;;4.10;3.88;;;;;;;;;;6246752;23;20430;-60
2021/07/02 04:55:53;;;;;;;4.15;3.75;;;;;;;;;;6247024;23;20047;-60
2021/07/02 04:58:21;;;;;;;4.38;4.07;;;;;;;;;;6246747;23;20031;-60
2021/07/02 05:00:47;;;;;;;4.28;3.80;;;;;;;;;;6246712;23;20015;-60
2021/07/02 05:03:13;;;;;;;3.78;3.58;;;;;;;;;;6246920;23;20027;-60
2021/07/02 05:05:38;;;;;;;17.20;5.57;;;;;;;;;;6246641;23;20008;-59
2021/07/02 05:08:06;;;;;;;6.05;4.00;;;;;;;;;;6220362;23;20000;-59
2021/07/02 05:10:32;;;;;;;3.67;3.38;;;;;;;;;;6246790;23;20446;-59
2021/07/02 05:12:57;;;;;;;3.00;2.70;;;;;;;;;;6246050;23;20103;-59
2021/07/02 05:15:23;;;;;;;2.97;2.78;;;;;;;;;;6246417;23;20091;-60
2021/07/02 05:17:48;;;;;;;2.88;2.55;;;;;;;;;;6246683;23;20482;-60
2021/07/02 05:20:14;;;;;;;3.38;2.80;;;;;;;;;;6246507;23;20052;-60
2021/07/02 05:22:39;;;;;;;3.03;2.83;;;;;;;;;;6246646;23;20004;-60
2021/07/02 05:25:08;;;;;;;4.88;2.70;;;;;;;;;;6246310;23;20000;-60
2021/07/02 05:27:33;;;;;;;4.53;3.30;;;;;;;;;;6246433;23;20416;-60
2021/07/02 05:29:59;;;;;;;4.82;2.75;;;;;;;;;;6246407;23;20007;-60
2021/07/02 05:32:24;;;;;;;3.03;2.67;;;;;;;;;;6246516;23;20007;-60
2021/07/02 05:34:50;;;;;;;3.40;3.20;;;;;;;;;;6246480;23;20014;-60
2021/07/02 05:37:16;;;;;;;3.20;2.92;;;;;;;;;;6246707;23;20003;-60
2021/07/02 05:39:41;;;;;;;2.80;2.67;;;;;;;;;;6246121;23;20443;-59
2021/07/02 05:42:08;;;;;;;2.75;2.65;;;;;;;;;;6246742;23;20404;-59
2021/07/02 05:44:33;;;;;;;2.17;2.08;;;;;;;;;;6247227;23;20312;-59
2021/07/02 05:46:59;;;;;;;2.40;2.30;;;;;;;;;;6246523;23;19992;-59
2021/07/02 05:49:24;;;;;;;2.08;1.98;;;;;;;;;;6246220;23;20428;-59
2021/07/02 05:51:50;;;;;;;2.25;2.08;;;;;;;;;;6246260;23;20000;-59
2021/07/02 05:54:16;;;;;;;1.95;1.83;;;;;;;;;;6246367;23;20088;-59
2021/07/02 05:56:42;;;;;;;1.73;1.63;;;;;;;;;;6246343;23;19996;-59
2021/07/02 05:59:08;;;;;;;2.30;2.10;;;;;;;;;;6245995;23;20053;-59
2021/07/02 06:01:33;;;;;;;2.15;2.05;;;;;;;;;;6246025;23;20435;-59
2021/07/02 06:03:59;;;;;;;3.45;2.08;;;;;;;;;;6245846;23;20512;-59
2021/07/02 06:06:25;;;;;;;2.53;2.22;;;;;;;;;;6246436;23;20058;-59
2021/07/02 06:08:52;;;;;;;2.15;1.95;;;;;;;;;;6246255;23;20000;-59
2021/07/02 06:11:18;;;;;;;2.53;2.38;;;;;;;;;;6246451;23;20010;-59
2021/07/02 06:13:44;;;;;;;2.30;2.15;;;;;;;;;;6246270;23;20099;-59
2021/07/02 06:16:10;;;;;;;2.35;2.15;;;;;;;;;;6246532;23;20008;-59
2021/07/02 06:18:36;;;;;;;2.40;2.20;;;;;;;;;;6246347;23;20015;-59
2021/07/02 06:21:01;;;;;;;2.67;2.15;;;;;;;;;;6246550;23;20000;-59
2021/07/02 06:23:33;;;;;;;1.98;1.85;;;;;;;;;;6246026;23;20004;-59
2021/07/02 06:26:00;;;;;;;2.22;2.03;;;;;;;;;;6219791;23;20422;-59
2021/07/02 06:28:27;;;;;;;3.03;2.55;;;;;;;;;;6246070;23;20000;-59
2021/07/02 06:30:53;;;;;;;2.92;2.53;;;;;;;;;;6246992;23;20335;-59
2021/07/02 06:33:19;;;;;;;3.58;2.65;;;;;;;;;;6248060;23;20027;-59
2021/07/02 06:35:45;;;;;;;3.30;2.47;;;;;;;;;;6247846;23;20008;-59
2021/07/02 06:38:10;;;;;;;2.70;2.50;;;;;;;;;;6248232;23;20426;-59
2021/07/02 06:40:36;;;;;;;3.20;2.33;;;;;;;;;;6248050;23;20011;-59
2021/07/02 06:43:01;;;;;;;1.92;1.83;;;;;;;;;;6247865;23;20004;-59
2021/07/02 06:45:27;;;;;;;4.55;2.60;;;;;;;;;;6248195;23;20039;-59
2021/07/02 06:47:55;;;;;;;2.05;1.90;;;;;;;;;;6247957;23;19992;-59
2021/07/02 06:50:21;;;;;;;2.22;2.10;;;;;;;;;;6221818;23;20011;-59
2021/07/02 06:52:46;;;;;;;2.35;2.15;;;;;;;;;;6248312;23;20000;-59
2021/07/02 06:55:12;;;;;;;2.20;2.10;;;;;;;;;;6248508;23;20412;-59
2021/07/02 06:57:37;;;;;;;3.05;2.13;;;;;;;;;;6221051;23;20004;-59
2021/07/02 07:00:03;;;;;;;2.40;2.20;;;;;;;;;;6248059;23;20031;-59
2021/07/02 07:02:29;;;;;;;2.30;2.20;;;;;;;;;;6247958;23;20000;-59
2021/07/02 07:04:54;;;;;;;2.10;2.00;;;;;;;;;;6247756;23;20451;-60
2021/07/02 07:07:20;;;;;;;2.40;2.20;;;;;;;;;;6247898;23;19999;-59
2021/07/02 07:09:45;;;;;;;2.38;2.13;;;;;;;;;;6248196;23;20355;-60
2021/07/02 07:12:11;;;;;;;2.60;2.00;;;;;;;;;;6247735;23;20016;-60
2021/07/02 07:14:37;;;;;;;2.45;2.35;;;;;;;;;;6248466;23;20035;-60
2021/07/02 07:17:04;;;;;;;1.77;1.65;;;;;;;;;;6247980;23;20400;-59
2021/07/02 07:19:30;;;;;;;3.08;2.20;;;;;;;;;;6247519;23;20004;-59
2021/07/02 07:21:56;;;;;;;2.20;2.00;;;;;;;;;;6248031;23;20000;-59
2021/07/02 07:24:22;;;;;;;1.90;1.80;;;;;;;;;;6248254;23;20459;-59
2021/07/02 07:26:47;;;;;;;1.85;1.75;;;;;;;;;;6247686;23;19992;-59
2021/07/02 07:29:13;;;;;;;1.98;1.88;;;;;;;;;;6247829;23;20015;-59
2021/07/02 07:31:38;;;;;;;2.22;1.77;;;;;;;;;;6247731;23;20024;-59
2021/07/02 07:34:04;;;;;;;2.20;2.10;;;;;;;;;;6247927;23;20095;-60
2021/07/02 07:36:32;;;;;;;2.03;1.92;;;;;;;;;;6247720;23;19992;-59
2021/07/02 07:38:58;;;;;;;3.45;1.77;;;;;;;;;;6247822;23;20004;-59
2021/07/02 07:41:24;;;;;;;1.92;1.83;;;;;;;;;;6247310;23;20071;-60
2021/07/02 07:43:50;;;;;;;2.05;1.95;;;;;;;;;;6220761;23;20004;-60
2021/07/02 07:46:15;;;;;;;1.90;1.80;;;;;;;;;;6220922;23;20080;-60
2021/07/02 07:48:41;;;;;;;1.90;1.80;;;;;;;;;;6247203;23;20488;-60
2021/07/02 07:51:19;;;;;;;2.15;2.05;;;;;;;;;;6247301;23;20020;-59
2021/07/02 07:53:45;;;;;;;2.10;1.90;;;;;;;;;;6248068;23;20062;-58
2021/07/02 07:56:11;;;;;;;1.80;1.70;;;;;;;;;;6247472;23;20004;-59
2021/07/02 07:58:37;;;;;;;1.73;1.63;;;;;;;;;;6247432;23;20055;-59
2021/07/02 08:01:03;;;;;;;1.92;1.83;;;;;;;;;;6247524;23;20415;-59
2021/07/02 08:03:28;;;;;;;1.90;1.80;;;;;;;;;;6247423;23;20008;-59
2021/07/02 08:05:54;;;;;;;3.17;1.60;;;;;;;;;;6247430;23;20051;-59
2021/07/02 08:08:19;;;;;;;2.35;1.85;;;;;;;;;;6247150;23;20008;-59
2021/07/02 08:10:45;;;;;;;2.00;1.80;;;;;;;;;;6220392;23;20023;-59
2021/07/02 08:13:10;;;;;;;1.90;1.80;;;;;;;;;;6246912;23;20012;-59
2021/07/02 08:15:36;;;;;;;2.03;1.88;;;;;;;;;;6220377;23;20012;-59
2021/07/02 08:18:02;;;;;;;1.95;1.80;;;;;;;;;;6247393;23;20500;-60
2021/07/02 08:20:27;;;;;;;1.90;1.80;;;;;;;;;;6247271;23;20000;-59
2021/07/02 08:22:53;;;;;;;2.10;2.00;;;;;;;;;;6247005;23;20432;-59
2021/07/02 08:25:18;;;;;;;2.60;2.50;;;;;;;;;;6247281;23;20400;-59
2021/07/02 08:30:27;;;;;;;1.73;1.63;;;;;;;;;;6247755;23;20075;-59
2021/07/02 08:32:53;;;;;;;2.15;1.90;;;;;;;;;;6247057;23;20029;-59
2021/07/02 08:35:22;;;;;;;1.67;1.58;;;;;;;;;;6247065;23;20011;-59
2021/07/02 08:37:54;;;;;;;1.83;1.73;;;;;;;;;;6247392;23;20046;-59
2021/07/02 08:40:20;;;;;;;2.17;2.08;;;;;;;;;;6247661;23;20035;-59
2021/07/02 08:42:46;;;;;;;3.60;1.92;;;;;;;;;;6246305;23;20087;-62
2021/07/02 08:45:11;;;;;;;2.10;2.00;;;;;;;;;;6247136;23;20367;-62
2021/07/02 08:47:37;;;;;;;2.55;2.33;;;;;;;;;;6247155;23;20015;-62
2021/07/02 08:50:03;;;;;;;3.00;2.17;;;;;;;;;;6247002;23;20004;-60
2021/07/02 08:52:28;;;;;;;2.60;2.50;;;;;;;;;;6246781;23;20463;-60
2021/07/02 08:54:54;;;;;;;4.88;2.80;;;;;;;;;;6220388;23;20328;-60
2021/07/02 08:57:20;;;;;;;2.30;2.20;;;;;;;;;;6246856;23;20429;-60
2021/07/02 08:59:45;;;;;;;2.90;2.80;;;;;;;;;;6220092;23;20513;-60
2021/07/02 09:02:25;;;;;;;2.85;2.75;;;;;;;;;;6246740;23;20019;-60
2021/07/02 09:04:51;;;;;;;2.30;2.20;;;;;;;;;;6246783;23;20028;-60
2021/07/02 09:07:18;;;;;;;2.80;2.60;;;;;;;;;;6246587;23;20371;-62
2021/07/02 09:09:44;;;;;;;3.22;2.90;;;;;;;;;;6246631;23;20000;-62
2021/07/02 09:12:10;;;;;;;2.60;2.40;;;;;;;;;;6246234;23;20380;-63
2021/07/02 09:14:35;;;;;;;2.60;2.50;;;;;;;;;;6247070;23;20087;-62
2021/07/02 09:17:11;;;;;;;2.47;2.38;;;;;;;;;;6246716;23;20012;-62
2021/07/02 09:19:37;;;;;;;2.70;2.50;;;;;;;;;;6246503;23;20355;-62
2021/07/02 09:22:13;;;;;;;2.65;2.55;;;;;;;;;;6246417;23;19996;-62
2021/07/02 09:24:40;;;;;;;2.78;2.58;;;;;;;;;;6246502;23;20004;-62
2021/07/02 09:27:25;;;;;;;2.65;2.30;;;;;;;;;;6246406;23;20427;-62
2021/07/02 09:30:11;;;;;;;3.15;2.92;;;;;;;;;;6246300;23;20310;-62
2021/07/02 09:32:38;;;;;;;2.85;2.65;;;;;;;;;;6246623;23;20008;-62
2021/07/02 09:35:03;;;;;;;2.80;2.70;;;;;;;;;;6219973;23;20444;-62
2021/07/02 09:37:31;;;;;;;2.72;2.33;;;;;;;;;;6219006;23;20008;-63
2021/07/02 09:40:07;;;;;;;2.60;2.40;;;;;;;;;;6246159;23;20063;-62
2021/07/02 09:42:33;;;;;;;3.03;2.55;;;;;;;;;;6246021;23;20301;-62
2021/07/02 09:45:12;;;;;;;2.28;2.17;;;;;;;;;;6245725;23;20045;-62
2021/07/02 09:47:39;;;;;;;2.47;2.27;;;;;;;;;;6246443;23;20004;-62
2021/07/02 09:50:20;;;;;;;2.60;2.40;;;;;;;;;;6219332;23;20331;-62
2021/07/02 09:52:49;;;;;;;3.25;2.10;;;;;;;;;;6219866;23;20011;-62
2021/07/02 09:55:15;;;;;;;2.53;2.33;;;;;;;;;;6246622;23;20027;-62
2021/07/02 09:57:40;;;;;;;3.80;2.00;;;;;;;;;;6246222;23;20004;-62
2021/07/02 10:00:10;;;;;;;2.38;2.28;;;;;;;;;;6246620;23;20083;-62
2021/07/02 10:02:51;;;;;;;2.30;2.20;;;;;;;;;;6246880;23;20012;-62
2021/07/02 10:05:17;;;;;;;2.47;2.28;;;;;;;;;;6246019;23;20004;-62
2021/07/02 10:07:54;;;;;;;2.38;2.17;;;;;;;;;;6246092;23;20126;-56
2021/07/02 10:10:20;;;;;;;3.35;2.17;;;;;;;;;;6246597;23;20032;-60
2021/07/02 10:12:46;;;;;;;2.38;2.28;;;;;;;;;;6246223;23;20015;-60
2021/07/02 10:15:11;;;;;;;2.33;2.22;;;;;;;;;;6246684;23;20016;-60
2021/07/02 10:17:36;;;;;;;5.03;2.30;;;;;;;;;;6246257;23;20008;-60
2021/07/02 10:20:02;;;;;;;2.40;2.30;;;;;;;;;;6219591;23;20030;-60
2021/07/02 10:22:28;;;;;;;2.28;2.17;;;;;;;;;;6246101;23;19996;-60
2021/07/02 10:25:02;;;;;;;4.88;2.17;;;;;;;;;;6246553;23;20000;-60
2021/07/02 10:27:28;;;;;;;2.40;2.20;;;;;;;;;;6246371;23;20004;-60
2021/07/02 10:29:53;;;;;;;1.98;1.88;;;;;;;;;;6246179;23;20007;-59
2021/07/02 10:32:20;;;;;;;1.80;1.70;;;;;;;;;;6246310;23;20008;-60
2021/07/02 10:34:48;;;;;;;3.33;1.90;;;;;;;;;;6219319;23;20046;-60
2021/07/02 10:37:14;;;;;;;1.90;1.80;;;;;;;;;;6246173;23;20008;-60
2021/07/02 10:39:43;;;;;;;1.88;1.80;;;;;;;;;;6219909;23;20027;-60
2021/07/02 10:42:13;;;;;;;3.53;1.87;;;;;;;;;;6245903;23;20004;-60
2021/07/02 10:44:54;;;;;;;1.92;1.70;;;;;;;;;;6246105;23;20310;-60
2021/07/02 10:47:21;;;;;;;1.70;1.60;;;;;;;;;;6246100;23;20011;-60
2021/07/02 10:49:47;;;;;;;2.88;1.85;;;;;;;;;;6246190;23;20031;-60
2021/07/02 10:52:24;;;;;;;1.70;1.60;;;;;;;;;;6246211;23;20336;-60
2021/07/02 10:54:50;;;;;;;2.22;1.90;;;;;;;;;;6246211;23;20008;-60
2021/07/02 10:57:18;;;;;;;1.83;1.73;;;;;;;;;;6245897;23;20007;-60
2021/07/02 10:59:46;;;;;;;1.95;1.85;;;;;;;;;;6246108;23;20058;-60
2021/07/02 11:02:12;;;;;;;1.70;1.60;;;;;;;;;;6246289;23;20371;-60
2021/07/02 11:04:38;;;;;;;2.03;1.92;;;;;;;;;;6245871;23;20000;-60
2021/07/02 11:07:12;;;;;;;2.10;2.00;;;;;;;;;;6246184;23;20000;-60
2021/07/02 11:09:50;;;;;;;1.67;1.58;;;;;;;;;;6219107;23;20000;-59
2021/07/02 11:12:16;;;;;;;2.15;1.75;;;;;;;;;;6245522;23;20099;-59
2021/07/02 11:14:54;;;;;;;1.70;1.60;;;;;;;;;;6245979;23;20435;-59
2021/07/02 11:17:20;;;;;;;2.00;1.85;;;;;;;;;;6221022;23;20031;-59
2021/07/02 11:20:06;;;;;;;2.15;1.40;;;;;;;;;;6248286;23;20424;-60
2021/07/02 11:22:34;;;;;;;1.98;1.70;;;;;;;;;;6247948;23;20008;-60
2021/07/02 11:25:01;;;;;;;3.33;1.83;;;;;;;;;;6247174;23;19996;-61
2021/07/02 11:32:47;;;;;;;2.10;2.00;;;;;;;;;;6247505;23;20008;-60
2021/07/02 11:35:24;;;;;;;2.00;1.48;;;;;;;;;;6247988;23;20000;-60
2021/07/02 11:37:59;;;;;;;2.75;1.88;;;;;;;;;;6248124;23;20066;-60
2021/07/02 11:40:26;;;;;;;1.70;1.60;;;;;;;;;;6247669;23;20042;-60
2021/07/02 11:42:51;;;;;;;1.90;1.80;;;;;;;;;;6247438;23;19996;-59
2021/07/02 11:45:17;;;;;;;1.73;1.63;;;;;;;;;;6247855;23;20011;-60
2021/07/02 11:47:43;;;;;;;1.95;1.85;;;;;;;;;;6247827;23;20002;-59
2021/07/02 11:50:08;;;;;;;2.08;1.50;;;;;;;;;;6247598;23;20010;-59
2021/07/02 11:52:34;;;;;;;1.70;1.60;;;;;;;;;;6248017;23;20324;-59
2021/07/02 11:54:59;;;;;;;3.15;1.70;;;;;;;;;;6248320;23;20313;-59
2021/07/02 11:57:25;;;;;;;1.67;1.58;;;;;;;;;;6220574;23;20004;-59
2021/07/02 12:00:01;;;;;;;1.58;1.58;;;;;;;;;;6248021;23;20015;-59
2021/07/02 12:02:27;;;;;;;1.70;1.60;;;;;;;;;;6247364;23;20004;-59
2021/07/02 12:05:06;;;;;;;2.30;2.20;;;;;;;;;;6247550;23;19998;-59
2021/07/02 12:07:32;;;;;;;1.60;1.50;;;;;;;;;;6220874;23;20004;-60
2021/07/02 12:09:58;;;;;;;2.13;1.92;;;;;;;;;;6247867;23;20018;-60
2021/07/02 12:12:24;;;;;;;2.30;2.10;;;;;;;;;;6246816;23;20012;-60
2021/07/02 12:14:49;;;;;;;2.63;2.00;;;;;;;;;;6247157;23;20433;-60
2021/07/02 12:17:18;;;;;;;2.17;2.08;;;;;;;;;;6247071;23;20007;-60
2021/07/02 12:19:44;;;;;;;5.57;2.17;;;;;;;;;;6246860;23;20012;-60
2021/07/02 12:22:12;;;;;;;1.95;1.85;;;;;;;;;;6246717;23;20011;-60
2021/07/02 12:24:40;;;;;;;2.15;1.67;;;;;;;;;;6220183;23;20007;-60
2021/07/02 12:27:14;;;;;;;3.10;1.67;;;;;;;;;;6246891;23;20030;-60
2021/07/02 12:29:42;;;;;;;2.50;1.67;;;;;;;;;;6246789;23;20497;-60
2021/07/02 12:32:09;;;;;;;1.45;1.42;;;;;;;;;;6246897;23;20324;-60
2021/07/02 12:34:40;;;;;;;3.03;1.60;;;;;;;;;;6246817;23;20008;-60
2021/07/02 12:37:07;;;;;;;1.33;1.30;;;;;;;;;;6246747;23;20004;-60
2021/07/02 12:39:37;;;;;;;1.65;1.60;;;;;;;;;;6246917;23;20022;-60
2021/07/02 12:42:13;;;;;;;2.08;1.90;;;;;;;;;;6246701;23;20008;-60
2021/07/02 12:44:40;;;;;;;1.98;1.77;;;;;;;;;;6246599;23;20375;-60
2021/07/02 12:47:06;;;;;;;3.05;1.88;;;;;;;;;;6246592;23;20000;-60
2021/07/02 12:49:41;;;;;;;1.80;1.70;;;;;;;;;;6220143;23;20004;-60
2021/07/02 12:57:29;;;;;;;2.50;2.10;;;;;;;;;;6246667;23;20440;-60
2021/07/02 12:59:55;;;;;;;2.17;1.95;;;;;;;;;;6246535;23;20008;-60
2021/07/02 13:02:33;;;;;;;2.35;2.15;;;;;;;;;;6246435;23;20010;-60
2021/07/02 13:05:03;;;;;;;2.00;1.90;;;;;;;;;;6246450;23;20031;-60
2021/07/02 13:07:44;;;;;;;1.92;1.83;;;;;;;;;;6246725;23;20428;-60
2021/07/02 13:10:12;;;;;;;1.95;1.80;;;;;;;;;;6246726;23;20083;-60
2021/07/02 13:12:39;;;;;;;1.52;1.52;;;;;;;;;;6219117;23;20023;-60
2021/07/02 13:15:05;;;;;;;1.80;1.70;;;;;;;;;;6246186;23;20015;-60
2021/07/02 13:17:49;;;;;;;1.90;1.80;;;;;;;;;;6219589;23;20336;-60
2021/07/02 13:20:15;;;;;;;2.10;2.00;;;;;;;;;;6246552;23;20004;-60
2021/07/02 13:22:42;;;;;;;1.60;1.50;;;;;;;;;;6246279;23;20420;-60
2021/07/02 13:25:11;;;;;;;1.95;1.85;;;;;;;;;;6246299;23;20000;-60
2021/07/02 13:27:37;;;;;;;1.60;1.60;;;;;;;;;;6246453;23;19996;-60
2021/07/02 13:30:04;;;;;;;2.00;1.83;;;;;;;;;;6246344;23;20010;-60
2021/07/02 13:32:29;;;;;;;1.75;1.65;;;;;;;;;;6246212;23;20092;-60
2021/07/02 13:34:55;;;;;;;1.85;1.63;;;;;;;;;;6246146;23;20428;-60
2021/07/02 13:37:27;;;;;;;1.73;1.63;;;;;;;;;;6246313;23;20004;-60
2021/07/02 13:39:54;;;;;;;5.53;2.35;;;;;;;;;;6245859;23;20482;-60
2021/07/02 13:42:26;;;;;;;2.03;1.85;;;;;;;;;;6219386;23;20006;-60
2021/07/02 13:44:52;;;;;;;2.05;1.95;;;;;;;;;;6246134;23;20004;-60
2021/07/02 13:47:23;;;;;;;1.33;1.33;;;;;;;;;;6246094;23;20019;-60
2021/07/02 13:49:49;;;;;;;1.63;1.40;;;;;;;;;;6246050;23;20031;-60
2021/07/02 13:52:14;;;;;;;1.95;1.67;;;;;;;;;;6246024;23;20003;-60
2021/07/02 13:54:40;;;;;;;1.55;1.45;;;;;;;;;;6219430;23;20008;-60
2021/07/02 13:57:07;;;;;;;1.98;1.60;;;;;;;;;;6245897;23;20004;-60
2021/07/02 13:59:33;;;;;;;1.88;1.70;;;;;;;;;;6219190;23;20010;-60
2021/07/02 14:01:59;;;;;;;2.22;1.98;;;;;;;;;;6219194;23;20381;-60
2021/07/02 14:04:26;;;;;;;2.92;2.20;;;;;;;;;;6219050;23;20011;-60
2021/07/02 14:06:51;;;;;;;2.50;1.80;;;;;;;;;;6245451;23;19992;-60
2021/07/02 14:09:17;;;;;;;1.95;1.85;;;;;;;;;;6246313;23;19999;-60
2021/07/02 14:11:43;;;;;;;1.90;1.80;;;;;;;;;;6245461;23;19999;-60
2021/07/02 14:14:09;;;;;;;2.28;2.08;;;;;;;;;;6246030;23;20008;-59
2021/07/02 14:16:35;;;;;;;2.13;2.03;;;;;;;;;;6245989;23;20004;-60
2021/07/02 14:19:00;;;;;;;2.10;2.00;;;;;;;;;;6245835;23;20008;-60
2021/07/02 14:21:26;;;;;;;1.83;1.77;;;;;;;;;;6245781;23;20015;-60
2021/07/02 14:23:51;;;;;;;2.08;1.98;;;;;;;;;;6245842;23;20336;-60
2021/07/02 14:26:17;;;;;;;2.13;1.65;;;;;;;;;;6245846;23;20305;-60
2021/07/02 14:28:43;;;;;;;1.88;1.83;;;;;;;;;;6245851;23;20004;-60
2021/07/02 14:31:09;;;;;;;1.58;1.58;;;;;;;;;;6245965;23;20003;-60
2021/07/02 14:33:35;;;;;;;1.80;1.70;;;;;;;;;;6245837;23;20035;-60
2021/07/02 14:36:01;;;;;;;1.63;1.52;;;;;;;;;;6245946;23;20083;-60
2021/07/02 14:38:27;;;;;;;1.85;1.75;;;;;;;;;;6245929;23;20012;-60
2021/07/02 14:40:52;;;;;;;2.35;2.20;;;;;;;;;;6245905;23;20301;-60
2021/07/02 14:43:18;;;;;;;1.75;1.65;;;;;;;;;;6245681;23;20011;-60
2021/07/02 14:45:43;;;;;;;1.73;1.63;;;;;;;;;;6245705;23;19996;-60
2021/07/02 14:48:10;;;;;;;3.33;1.90;;;;;;;;;;6219097;23;20006;-60
2021/07/02 14:50:35;;;;;;;2.05;1.80;;;;;;;;;;6245927;23;20325;-60
2021/07/02 14:53:02;;;;;;;1.50;1.50;;;;;;;;;;6247838;23;20010;-60
2021/07/02 14:55:33;;;;;;;2.45;1.88;;;;;;;;;;6247806;23;19996;-60
2021/07/02 14:57:58;;;;;;;;;;;;;;;;;;6221416;23;20008;-60